createdAt,value
2018-11-10T00:01:34.192Z,19.20
2018-11-10T00:04:02.948Z,19.20
2018-11-10T00:06:31.680Z,19.20
2018-11-10T00:09:00.552Z,19.20
2018-11-10T00:11:29.254Z,19.20
2018-11-10T00:13:58.342Z,19.20
2018-11-10T00:16:26.213Z,19.20
2018-11-10T00:18:55.106Z,19.20
2018-11-10T00:21:22.920Z,19.20
2018-11-10T00:23:51.031Z,19.20
2018-11-10T00:26:18.852Z,19.20
2018-11-10T00:28:47.761Z,19.20
2018-11-10T00:31:15.620Z,19.20
2018-11-10T00:33:44.737Z,19.20
2018-11-10T00:36:14.204Z,19.10
2018-11-10T00:38:43.435Z,19.10
2018-11-10T00:41:12.133Z,19.10
2018-11-10T00:43:40.876Z,19.20
2018-11-10T00:46:11.484Z,19.20
2018-11-10T00:48:40.358Z,19.20
2018-11-10T00:51:09.200Z,19.20
2018-11-10T00:53:38.246Z,19.20
2018-11-10T00:56:06.139Z,19.10
2018-11-10T00:58:34.986Z,19.10
2018-11-10T01:01:03.727Z,19.10
2018-11-10T01:03:32.452Z,19.10
2018-11-10T01:06:01.289Z,19.10
2018-11-10T01:08:29.987Z,19.10
2018-11-10T01:10:58.695Z,19.10
2018-11-10T01:13:27.426Z,19.10
2018-11-10T01:15:56.236Z,19.10
2018-11-10T01:18:24.494Z,19.20
2018-11-10T01:20:55.364Z,19.10
2018-11-10T01:23:24.065Z,19.10
2018-11-10T01:25:52.754Z,19.10
2018-11-10T01:28:20.572Z,19.10
2018-11-10T01:30:49.455Z,19.10
2018-11-10T01:33:18.187Z,19.10
2018-11-10T01:35:46.942Z,19.20
2018-11-10T01:38:15.702Z,19.20
2018-11-10T01:40:44.184Z,19.10
2018-11-10T01:43:12.858Z,19.20
2018-11-10T01:45:40.721Z,19.10
2018-11-10T01:48:10.955Z,19.10
2018-11-10T01:50:39.822Z,19.20
2018-11-10T01:53:07.655Z,19.20
2018-11-10T01:55:35.489Z,19.30
2018-11-10T01:58:05.479Z,19.40
2018-11-10T02:00:33.330Z,19.40
2018-11-10T02:03:02.059Z,19.40
2018-11-10T02:05:29.885Z,19.40
2018-11-10T02:07:57.710Z,19.30
2018-11-10T02:10:25.529Z,19.30
2018-11-10T02:12:53.353Z,19.30
2018-11-10T02:15:21.179Z,19.20
2018-11-10T02:17:48.983Z,19.20
2018-11-10T02:20:16.782Z,19.20
2018-11-10T02:22:46.910Z,19.20
2018-11-10T02:25:15.467Z,19.20
2018-11-10T02:27:45.078Z,19.20
2018-11-10T02:30:14.437Z,19.20
2018-11-10T02:32:45.692Z,19.10
2018-11-10T02:35:14.204Z,19.10
2018-11-10T02:37:44.155Z,19.10
2018-11-10T02:40:13.431Z,19.10
2018-11-10T02:42:41.214Z,19.20
2018-11-10T02:45:09.794Z,19.10
2018-11-10T02:47:37.665Z,19.10
2018-11-10T02:50:06.524Z,19.10
2018-11-10T02:52:34.412Z,19.10
2018-11-10T02:55:03.085Z,19.10
2018-11-10T02:57:31.022Z,19.10
2018-11-10T02:59:58.880Z,19.10
2018-11-10T03:02:28.655Z,19.10
2018-11-10T03:04:56.487Z,19.10
2018-11-10T03:07:25.285Z,19.10
2018-11-10T03:09:53.110Z,19.10
2018-11-10T03:12:20.915Z,19.10
2018-11-10T03:14:49.781Z,19.10
2018-11-10T03:17:17.609Z,19.10
2018-11-10T03:19:48.701Z,19.00
2018-11-10T03:22:16.629Z,19.00
2018-11-10T03:24:45.216Z,19.00
2018-11-10T03:27:13.619Z,19.10
2018-11-10T03:29:41.999Z,19.10
2018-11-10T03:32:09.946Z,19.10
2018-11-10T03:34:37.788Z,19.10
2018-11-10T03:37:05.619Z,19.10
2018-11-10T03:39:33.629Z,19.10
2018-11-10T03:42:01.457Z,19.00
2018-11-10T03:44:29.328Z,19.00
2018-11-10T03:46:57.150Z,19.00
2018-11-10T03:49:24.976Z,19.00
2018-11-10T03:51:54.725Z,19.00
2018-11-10T03:54:22.558Z,19.00
2018-11-10T03:56:51.473Z,19.00
2018-11-10T03:59:19.391Z,19.00
2018-11-10T04:01:47.218Z,19.00
2018-11-10T04:04:15.662Z,19.00
2018-11-10T04:06:45.600Z,19.00
2018-11-10T04:09:18.253Z,19.00
2018-11-10T04:11:47.968Z,19.00
2018-11-10T04:14:16.746Z,19.00
2018-11-10T04:16:45.629Z,19.00
2018-11-10T04:19:14.071Z,19.00
2018-11-10T04:21:41.949Z,19.00
2018-11-10T04:24:11.312Z,19.00
2018-11-10T04:26:40.153Z,19.00
2018-11-10T04:29:08.867Z,19.00
2018-11-10T04:31:37.553Z,18.90
2018-11-10T04:34:06.366Z,18.90
2018-11-10T04:36:35.200Z,18.90
2018-11-10T04:39:04.856Z,18.90
2018-11-10T04:41:33.555Z,18.90
2018-11-10T04:44:04.153Z,18.90
2018-11-10T04:46:31.982Z,18.90
2018-11-10T04:49:00.814Z,19.00
2018-11-10T04:51:29.560Z,18.90
2018-11-10T04:54:00.056Z,18.90
2018-11-10T04:56:27.925Z,18.90
2018-11-10T04:58:56.653Z,18.90
2018-11-10T05:01:26.821Z,18.90
2018-11-10T05:03:55.718Z,18.90
2018-11-10T05:06:24.604Z,18.90
2018-11-10T05:08:53.344Z,18.90
2018-11-10T05:11:22.049Z,18.90
2018-11-10T05:13:50.752Z,18.90
2018-11-10T05:16:21.469Z,18.90
2018-11-10T05:18:50.212Z,18.90
2018-11-10T05:21:18.941Z,18.90
2018-11-10T05:23:47.719Z,18.90
2018-11-10T05:26:16.432Z,18.90
2018-11-10T05:28:45.124Z,18.90
2018-11-10T05:31:15.963Z,18.90
2018-11-10T05:33:46.532Z,18.90
2018-11-10T05:36:16.546Z,18.90
2018-11-10T05:38:45.245Z,18.90
2018-11-10T05:41:14.361Z,18.90
2018-11-10T05:43:42.211Z,18.90
2018-11-10T05:46:11.146Z,18.90
2018-11-10T05:48:39.879Z,18.90
2018-11-10T05:51:08.640Z,18.90
2018-11-10T05:53:36.457Z,18.90
2018-11-10T05:56:05.858Z,18.90
2018-11-10T05:58:34.684Z,18.90
2018-11-10T06:01:03.376Z,19.00
2018-11-10T06:03:32.104Z,19.00
2018-11-10T06:06:01.856Z,19.00
2018-11-10T06:08:29.688Z,19.00
2018-11-10T06:10:58.399Z,19.10
2018-11-10T06:13:27.755Z,19.10
2018-11-10T06:15:55.632Z,19.10
2018-11-10T06:18:23.955Z,19.00
2018-11-10T06:20:51.794Z,19.00
2018-11-10T06:23:21.223Z,19.00
2018-11-10T06:25:50.033Z,19.00
2018-11-10T06:28:18.795Z,19.00
2018-11-10T06:30:46.706Z,19.00
2018-11-10T06:33:16.680Z,19.00
2018-11-10T06:35:45.748Z,19.00
2018-11-10T06:38:14.174Z,19.00
2018-11-10T06:40:44.249Z,19.00
2018-11-10T06:43:15.161Z,19.00
2018-11-10T06:45:47.869Z,19.00
2018-11-10T06:48:16.590Z,19.00
2018-11-10T06:50:46.434Z,19.00
2018-11-10T06:53:16.051Z,19.00
2018-11-10T06:55:44.913Z,19.00
2018-11-10T06:58:15.360Z,19.00
2018-11-10T07:00:45.817Z,19.00
2018-11-10T07:03:14.328Z,19.00
2018-11-10T07:05:43.415Z,19.00
2018-11-10T07:08:12.258Z,18.90
2018-11-10T07:10:40.979Z,19.00
2018-11-10T07:13:09.645Z,19.00
2018-11-10T07:15:37.426Z,19.00
2018-11-10T07:18:05.329Z,19.00
2018-11-10T07:20:33.162Z,19.00
2018-11-10T07:23:01.798Z,19.00
2018-11-10T07:25:29.617Z,19.00
2018-11-10T07:27:57.439Z,19.00
2018-11-10T07:30:25.237Z,19.00
2018-11-10T07:32:53.046Z,18.90
2018-11-10T07:35:21.924Z,18.90
2018-11-10T07:37:49.751Z,18.90
2018-11-10T07:40:17.578Z,19.00
2018-11-10T07:42:46.118Z,19.00
2018-11-10T07:45:16.119Z,19.00
2018-11-10T07:47:45.263Z,19.00
2018-11-10T07:50:13.459Z,19.00
2018-11-10T07:52:43.876Z,19.00
2018-11-10T07:55:14.445Z,19.00
2018-11-10T07:57:42.322Z,19.00
2018-11-10T08:00:11.874Z,19.00
2018-11-10T08:02:39.723Z,19.00
2018-11-10T08:05:08.530Z,19.10
2018-11-10T08:07:36.462Z,19.00
2018-11-10T08:10:05.710Z,19.00
2018-11-10T08:12:33.509Z,19.00
2018-11-10T08:15:01.437Z,19.00
2018-11-10T08:17:29.254Z,19.00
2018-11-10T08:19:57.061Z,19.00
2018-11-10T08:22:24.942Z,19.00
2018-11-10T08:24:52.741Z,19.00
2018-11-10T08:27:20.876Z,19.00
2018-11-10T08:29:48.943Z,19.00
2018-11-10T08:32:16.757Z,18.90
2018-11-10T08:34:46.354Z,18.90
2018-11-10T08:37:14.928Z,18.90
2018-11-10T08:39:42.765Z,18.90
2018-11-10T08:42:10.624Z,19.00
2018-11-10T08:44:42.181Z,19.00
2018-11-10T08:47:10.943Z,19.10
2018-11-10T08:49:38.760Z,19.10
2018-11-10T08:52:06.585Z,19.10
2018-11-10T08:54:34.450Z,19.10
2018-11-10T08:57:02.273Z,19.10
2018-11-10T08:59:30.122Z,19.10
2018-11-10T09:01:57.956Z,19.10
2018-11-10T09:04:25.787Z,19.10
2018-11-10T09:06:54.503Z,19.10
2018-11-10T09:09:22.304Z,19.00
2018-11-10T09:11:50.118Z,19.00
2018-11-10T09:14:19.653Z,19.10
2018-11-10T09:16:47.528Z,19.10
2018-11-10T09:19:15.964Z,19.10
2018-11-10T09:21:44.473Z,19.10
2018-11-10T09:24:13.282Z,19.00
2018-11-10T09:26:41.116Z,19.00
2018-11-10T09:29:10.153Z,19.00
2018-11-10T09:31:37.977Z,19.00
2018-11-10T09:34:05.821Z,19.10
2018-11-10T09:36:33.792Z,19.00
2018-11-10T09:39:01.608Z,19.00
2018-11-10T09:41:29.580Z,19.00
2018-11-10T09:43:58.263Z,19.00
2018-11-10T09:46:27.125Z,19.00
2018-11-10T09:48:54.946Z,19.00
2018-11-10T09:51:22.772Z,19.10
2018-11-10T09:53:50.590Z,19.00
2018-11-10T09:56:19.311Z,19.00
2018-11-10T09:58:47.144Z,19.00
2018-11-10T10:01:15.742Z,19.00
2018-11-10T10:03:44.783Z,19.00
2018-11-10T10:06:12.681Z,19.00
2018-11-10T10:08:40.574Z,19.00
2018-11-10T10:11:08.405Z,19.00
2018-11-10T10:13:36.223Z,18.90
2018-11-10T10:16:04.141Z,19.00
2018-11-10T10:18:31.923Z,18.90
2018-11-10T10:21:00.752Z,18.80
2018-11-10T10:23:28.609Z,18.90
2018-11-10T10:25:56.542Z,19.00
2018-11-10T10:28:25.362Z,19.10
2018-11-10T10:30:53.291Z,19.20
2018-11-10T10:33:21.115Z,19.20
2018-11-10T10:35:49.992Z,19.20
2018-11-10T10:38:17.815Z,19.20
2018-11-10T10:40:45.776Z,19.20
2018-11-10T10:43:15.362Z,19.20
2018-11-10T10:45:43.671Z,19.20
2018-11-10T10:48:11.539Z,19.10
2018-11-10T10:50:39.356Z,19.10
2018-11-10T10:53:07.140Z,19.10
2018-11-10T10:55:35.015Z,19.10
2018-11-10T10:58:02.878Z,19.10
2018-11-10T11:00:36.122Z,19.10
2018-11-10T11:03:09.325Z,19.10
2018-11-10T11:05:40.508Z,19.10
2018-11-10T11:08:09.344Z,19.10
2018-11-10T11:10:37.216Z,19.10
2018-11-10T11:13:05.089Z,19.10
2018-11-10T11:15:33.171Z,19.00
2018-11-10T11:18:01.822Z,19.00
2018-11-10T11:20:29.649Z,19.00
2018-11-10T11:22:57.568Z,19.10
2018-11-10T11:25:26.403Z,19.10
2018-11-10T11:27:55.259Z,19.10
2018-11-10T11:30:23.112Z,19.10
2018-11-10T11:32:50.952Z,19.10
2018-11-10T11:35:18.860Z,19.10
2018-11-10T11:37:47.549Z,19.10
2018-11-10T11:40:16.007Z,19.10
2018-11-10T11:42:45.045Z,19.10
2018-11-10T11:45:14.050Z,19.10
2018-11-10T11:47:42.795Z,19.10
2018-11-10T11:50:12.860Z,19.20
2018-11-10T11:52:41.775Z,19.20
2018-11-10T11:55:10.222Z,19.10
2018-11-10T11:57:39.151Z,19.10
2018-11-10T12:00:08.080Z,19.10
2018-11-10T12:02:36.801Z,19.10
2018-11-10T12:05:05.012Z,19.10
2018-11-10T12:07:32.897Z,19.10
2018-11-10T12:10:00.731Z,19.10
2018-11-10T12:12:29.606Z,19.10
2018-11-10T12:14:58.552Z,19.10
2018-11-10T12:17:26.392Z,19.10
2018-11-10T12:19:54.282Z,19.10
2018-11-10T12:22:22.084Z,19.10
2018-11-10T12:24:50.561Z,19.10
2018-11-10T12:27:18.651Z,19.10
2018-11-10T12:29:46.612Z,19.00
2018-11-10T12:32:14.598Z,19.10
2018-11-10T12:34:44.077Z,19.10
2018-11-10T12:37:12.788Z,19.20
2018-11-10T12:39:40.678Z,19.30
2018-11-10T12:42:08.553Z,19.30
2018-11-10T12:44:36.373Z,19.30
2018-11-10T12:47:04.315Z,19.30
2018-11-10T12:49:32.112Z,19.30
2018-11-10T12:52:00.067Z,19.30
2018-11-10T12:54:28.798Z,19.30
2018-11-10T12:56:56.618Z,19.30
2018-11-10T12:59:25.190Z,19.30
2018-11-10T13:01:53.956Z,19.20
2018-11-10T13:04:21.822Z,19.20
2018-11-10T13:06:50.547Z,19.20
2018-11-10T13:09:18.367Z,19.20
2018-11-10T13:11:46.357Z,19.20
2018-11-10T13:14:15.646Z,19.30
2018-11-10T13:16:45.349Z,19.30
2018-11-10T13:19:13.193Z,19.20
2018-11-10T13:21:41.889Z,19.20
2018-11-10T13:24:09.755Z,19.20
2018-11-10T13:26:38.568Z,19.20
2018-11-10T13:29:07.478Z,19.20
2018-11-10T13:31:35.464Z,19.20
2018-11-10T13:34:03.274Z,19.30
2018-11-10T13:36:31.146Z,19.30
2018-11-10T13:39:00.094Z,19.30
2018-11-10T13:41:27.986Z,19.30
2018-11-10T13:43:55.937Z,19.30
2018-11-10T13:46:24.727Z,19.30
2018-11-10T13:48:52.625Z,19.20
2018-11-10T13:51:20.611Z,19.20
2018-11-10T13:53:48.426Z,19.20
2018-11-10T13:56:16.249Z,19.30
2018-11-10T13:58:45.589Z,19.30
2018-11-10T14:01:14.195Z,19.30
2018-11-10T14:03:42.022Z,19.30
2018-11-10T14:06:09.878Z,19.30
2018-11-10T14:08:38.592Z,19.20
2018-11-10T14:11:06.432Z,19.20
2018-11-10T14:13:34.298Z,19.20
2018-11-10T14:16:03.107Z,19.20
2018-11-10T14:18:30.930Z,19.20
2018-11-10T14:20:58.769Z,19.20
2018-11-10T14:23:26.589Z,19.30
2018-11-10T14:25:54.411Z,19.20
2018-11-10T14:28:22.231Z,19.20
2018-11-10T14:30:50.066Z,19.20
2018-11-10T14:33:18.035Z,19.20
2018-11-10T14:35:46.386Z,19.30
2018-11-10T14:38:14.950Z,19.20
2018-11-10T14:40:42.759Z,19.20
2018-11-10T14:43:10.606Z,19.20
2018-11-10T14:45:39.295Z,19.30
2018-11-10T14:48:07.989Z,19.30
2018-11-10T14:50:36.719Z,19.40
2018-11-10T14:53:04.732Z,19.40
2018-11-10T14:55:32.442Z,19.50
2018-11-10T14:58:01.277Z,19.50
2018-11-10T15:00:30.165Z,19.50
2018-11-10T15:02:58.551Z,19.50
2018-11-10T15:05:27.493Z,19.40
2018-11-10T15:07:56.451Z,19.20
2018-11-10T15:10:24.283Z,19.00
2018-11-10T15:13:15.010Z,19.10
2018-11-10T15:15:49.284Z,19.20
2018-11-10T15:18:18.382Z,19.20
2018-11-10T15:20:47.059Z,19.30
2018-11-10T15:23:15.765Z,19.30
2018-11-10T15:25:45.438Z,19.30
2018-11-10T15:28:15.101Z,19.30
2018-11-10T15:30:43.888Z,19.30
2018-11-10T15:33:11.706Z,19.30
2018-11-10T15:35:40.543Z,19.30
2018-11-10T15:38:08.404Z,19.30
2018-11-10T15:40:36.243Z,19.30
2018-11-10T15:43:04.058Z,19.30
2018-11-10T15:45:33.203Z,19.30
2018-11-10T15:48:01.906Z,19.30
2018-11-10T15:50:30.724Z,19.10
2018-11-10T15:52:58.492Z,19.20
2018-11-10T15:55:26.322Z,19.20
2018-11-10T15:57:54.143Z,19.20
2018-11-10T16:00:22.008Z,19.20
2018-11-10T16:02:50.785Z,19.30
2018-11-10T16:05:18.599Z,19.30
2018-11-10T16:07:46.441Z,19.30
2018-11-10T16:10:14.985Z,19.30
2018-11-10T16:12:44.760Z,19.30
2018-11-10T16:15:14.314Z,19.30
2018-11-10T16:17:42.366Z,19.30
2018-11-10T16:20:12.129Z,19.30
2018-11-10T16:22:40.015Z,19.30
2018-11-10T16:25:08.688Z,19.30
2018-11-10T16:27:37.418Z,19.30
2018-11-10T16:30:06.240Z,19.30
2018-11-10T16:32:35.061Z,19.30
2018-11-10T16:35:03.787Z,19.00
2018-11-10T16:37:32.517Z,18.70
2018-11-10T16:40:01.241Z,18.50
2018-11-10T16:42:29.076Z,18.50
2018-11-10T16:44:59.703Z,18.60
2018-11-10T16:47:27.506Z,18.60
2018-11-10T16:49:56.361Z,18.50
2018-11-10T16:52:25.416Z,18.50
2018-11-10T16:54:53.559Z,18.40
2018-11-10T16:57:21.402Z,18.40
2018-11-10T16:59:49.262Z,18.40
2018-11-10T17:02:17.199Z,18.30
2018-11-10T17:04:45.643Z,18.30
2018-11-10T17:07:14.213Z,18.20
2018-11-10T17:09:42.096Z,18.20
2018-11-10T17:12:10.003Z,18.20
2018-11-10T17:14:37.942Z,18.20
2018-11-10T17:17:05.830Z,18.20
2018-11-10T17:19:34.552Z,18.30
2018-11-10T17:22:02.502Z,18.10
2018-11-10T17:24:31.319Z,18.10
2018-11-10T17:27:00.110Z,18.20
2018-11-10T17:29:28.858Z,18.20
2018-11-10T17:31:56.768Z,18.20
2018-11-10T17:34:24.789Z,18.10
2018-11-10T17:36:53.648Z,18.10
2018-11-10T17:39:21.774Z,18.10
2018-11-10T17:41:49.454Z,18.10
2018-11-10T17:44:18.162Z,18.10
2018-11-10T17:46:46.713Z,18.10
2018-11-10T17:49:14.924Z,18.10
2018-11-10T17:51:42.782Z,18.20
2018-11-10T17:54:11.463Z,18.20
2018-11-10T17:56:39.332Z,18.20
2018-11-10T17:59:07.524Z,18.10
2018-11-10T18:01:35.493Z,18.10
2018-11-10T18:04:04.473Z,18.10
2018-11-10T18:06:33.350Z,18.10
2018-11-10T18:09:02.242Z,18.10
2018-11-10T18:11:31.063Z,18.10
2018-11-10T18:13:58.908Z,18.10
2018-11-10T18:16:26.769Z,18.40
2018-11-10T18:18:54.651Z,18.50
2018-11-10T18:21:22.443Z,18.60
2018-11-10T18:23:50.254Z,18.70
2018-11-10T18:26:18.073Z,18.80
2018-11-10T18:28:46.781Z,18.90
2018-11-10T18:31:15.719Z,18.90
2018-11-10T18:33:45.712Z,18.90
2018-11-10T18:36:14.255Z,18.90
2018-11-10T18:38:42.060Z,18.90
2018-11-10T18:41:10.781Z,18.90
2018-11-10T18:43:38.589Z,19.00
2018-11-10T18:46:06.480Z,19.00
2018-11-10T18:48:34.285Z,19.00
2018-11-10T18:53:36.501Z,19.00
2018-11-10T18:56:05.197Z,19.00
2018-11-10T18:58:33.894Z,19.00
2018-11-10T19:01:02.992Z,19.00
2018-11-10T19:03:31.820Z,19.00
2018-11-10T19:06:00.548Z,19.00
2018-11-10T19:08:29.340Z,19.00
2018-11-10T19:10:57.175Z,19.00
2018-11-10T19:13:25.990Z,19.10
2018-11-10T19:15:54.739Z,19.10
2018-11-10T19:18:23.602Z,19.20
2018-11-10T19:20:51.457Z,19.30
2018-11-10T19:23:20.320Z,19.30
2018-11-10T19:25:49.030Z,19.20
2018-11-10T19:28:17.732Z,19.20
2018-11-10T19:30:46.417Z,19.10
2018-11-10T19:33:15.742Z,19.10
2018-11-10T19:35:44.574Z,19.10
2018-11-10T19:38:12.378Z,19.10
2018-11-10T19:40:40.216Z,19.00
2018-11-10T19:43:08.042Z,19.00
2018-11-10T19:45:35.854Z,19.00
2018-11-10T19:48:03.743Z,19.00
2018-11-10T19:50:31.617Z,19.00
2018-11-10T19:52:59.520Z,19.00
2018-11-10T19:55:27.502Z,19.00
2018-11-10T19:57:55.352Z,19.00
2018-11-10T20:00:24.376Z,19.00
2018-11-10T20:02:52.491Z,19.00
2018-11-10T20:05:21.172Z,19.00
2018-11-10T20:07:49.007Z,18.90
2018-11-10T20:10:16.852Z,18.90
2018-11-10T20:12:45.538Z,18.90
2018-11-10T20:15:14.747Z,18.90
2018-11-10T20:17:44.909Z,18.90
2018-11-10T20:20:14.297Z,18.90
2018-11-10T20:22:44.230Z,18.90
2018-11-10T20:25:14.770Z,19.00
2018-11-10T20:27:42.586Z,18.90
2018-11-10T20:30:13.620Z,18.90
2018-11-10T20:32:41.452Z,18.90
2018-11-10T20:35:10.603Z,19.00
2018-11-10T20:37:38.641Z,19.00
2018-11-10T20:40:07.052Z,19.00
2018-11-10T20:42:34.884Z,19.00
2018-11-10T20:45:02.817Z,19.00
2018-11-10T20:47:30.611Z,19.00
2018-11-10T20:49:58.441Z,19.00
2018-11-10T20:52:26.260Z,19.00
2018-11-10T20:54:54.144Z,19.00
2018-11-10T20:57:21.974Z,19.00
2018-11-10T20:59:49.836Z,19.00
2018-11-10T21:02:17.678Z,19.00
2018-11-10T21:04:45.505Z,19.00
2018-11-10T21:07:14.109Z,19.00
2018-11-10T21:09:41.955Z,19.00
2018-11-10T21:12:09.776Z,18.80
2018-11-10T21:14:38.466Z,18.40
2018-11-10T21:17:06.281Z,18.10
2018-11-10T21:19:34.126Z,17.80
2018-11-10T21:22:01.963Z,17.60
2018-11-10T21:24:29.785Z,17.60
2018-11-10T21:26:57.594Z,17.50
2018-11-10T21:29:25.463Z,17.40
2018-11-10T21:31:53.297Z,17.40
2018-11-10T21:34:21.100Z,17.30
2018-11-10T21:36:48.930Z,17.30
2018-11-10T21:39:16.750Z,17.30
2018-11-10T21:41:45.069Z,17.30
2018-11-10T21:44:13.759Z,17.30
2018-11-10T21:46:41.584Z,17.30
2018-11-10T21:49:09.493Z,17.30
2018-11-10T21:51:38.302Z,17.30
2018-11-10T21:54:06.131Z,17.30
2018-11-10T21:56:33.988Z,17.30
2018-11-10T21:59:01.800Z,17.20
2018-11-10T22:01:29.630Z,17.20
2018-11-10T22:03:57.465Z,17.20
2018-11-10T22:06:25.288Z,17.30
2018-11-10T22:08:53.175Z,17.30
2018-11-10T22:11:20.963Z,17.30
2018-11-10T22:13:48.782Z,17.30
2018-11-10T22:16:16.699Z,17.30
2018-11-10T22:18:44.763Z,17.20
2018-11-10T22:21:12.586Z,17.20
2018-11-10T22:23:40.408Z,17.20
2018-11-10T22:26:09.301Z,17.30
2018-11-10T22:28:37.147Z,17.30
2018-11-10T22:31:05.151Z,17.30
2018-11-10T22:33:33.010Z,17.20
2018-11-10T22:36:00.836Z,17.20
2018-11-10T22:38:28.638Z,17.10
2018-11-10T22:40:57.355Z,17.20
2018-11-10T22:43:26.098Z,17.20
2018-11-10T22:45:53.975Z,17.20
2018-11-10T22:48:22.691Z,17.20
2018-11-10T22:50:50.561Z,17.20
2018-11-10T22:53:18.401Z,17.20
2018-11-10T22:55:46.246Z,17.30
2018-11-10T22:58:14.929Z,17.30
2018-11-10T23:00:48.164Z,17.20
2018-11-10T23:03:15.989Z,17.20
2018-11-10T23:05:44.384Z,17.20
2018-11-10T23:08:13.615Z,17.10
2018-11-10T23:10:42.318Z,17.10
2018-11-10T23:13:11.037Z,17.20
2018-11-10T23:15:39.741Z,17.10
2018-11-10T23:18:07.575Z,17.10
2018-11-10T23:20:36.149Z,17.10
2018-11-10T23:23:04.003Z,17.10
2018-11-10T23:25:32.716Z,17.10
2018-11-10T23:28:01.442Z,17.10
2018-11-10T23:30:29.263Z,17.10
2018-11-10T23:32:57.089Z,17.00
2018-11-10T23:35:24.899Z,16.90
2018-11-10T23:37:52.703Z,16.90
2018-11-10T23:40:20.501Z,16.90
2018-11-10T23:42:48.327Z,16.90
2018-11-10T23:45:16.646Z,16.90
2018-11-10T23:47:46.374Z,17.00
2018-11-10T23:50:16.931Z,17.10
2018-11-10T23:52:45.732Z,17.10
2018-11-10T23:55:15.933Z,17.20
2018-11-10T23:57:45.912Z,17.20
